createdAt,value
2018-03-21T00:01:01.638Z,58.02
2018-03-21T00:03:29.246Z,58.03
2018-03-21T00:05:56.767Z,58.27
2018-03-21T00:08:24.286Z,58.37
2018-03-21T00:10:51.826Z,58.09
2018-03-21T00:13:19.713Z,58.22
2018-03-21T00:15:47.426Z,58.75
2018-03-21T00:18:14.929Z,58.38
2018-03-21T00:20:42.442Z,58.54
2018-03-21T00:23:09.978Z,58.58
2018-03-21T00:25:37.486Z,58.55
2018-03-21T00:28:05.322Z,58.51
2018-03-21T00:30:32.837Z,58.69
2018-03-21T00:33:00.337Z,58.95
2018-03-21T00:35:27.865Z,58.48
2018-03-21T00:37:55.382Z,59.02
2018-03-21T00:40:23.130Z,58.72
2018-03-21T00:42:50.691Z,58.60
2018-03-21T00:45:18.161Z,58.67
2018-03-21T00:47:45.688Z,58.19
2018-03-21T00:50:13.205Z,58.91
2018-03-21T00:52:40.922Z,58.68
2018-03-21T00:55:08.440Z,58.72
2018-03-21T00:57:35.950Z,58.90
2018-03-21T01:00:03.604Z,58.94
2018-03-21T01:02:31.124Z,59.04
2018-03-21T01:04:58.679Z,59.50
2018-03-21T01:07:26.606Z,59.18
2018-03-21T01:09:54.114Z,59.34
2018-03-21T01:12:21.641Z,59.12
2018-03-21T01:14:49.172Z,59.15
2018-03-21T01:17:17.022Z,59.56
2018-03-21T01:19:44.554Z,60.78
2018-03-21T01:22:12.066Z,60.70
2018-03-21T01:24:39.607Z,60.06
2018-03-21T01:27:07.117Z,60.15
2018-03-21T01:29:34.830Z,60.20
2018-03-21T01:32:02.374Z,60.93
2018-03-21T01:34:29.889Z,60.70
2018-03-21T01:36:57.425Z,60.75
2018-03-21T01:39:24.954Z,60.86
2018-03-21T01:41:52.926Z,60.82
2018-03-21T01:44:20.437Z,60.71
2018-03-21T01:46:47.945Z,60.58
2018-03-21T01:49:15.490Z,60.74
2018-03-21T01:51:43.017Z,60.74
2018-03-21T01:54:10.562Z,60.82
2018-03-21T01:56:38.074Z,60.92
2018-03-21T01:59:05.586Z,61.12
2018-03-21T02:01:33.166Z,61.02
2018-03-21T02:04:00.675Z,61.10
2018-03-21T02:06:28.652Z,60.86
2018-03-21T02:08:56.165Z,60.87
2018-03-21T02:11:23.676Z,60.84
2018-03-21T02:13:51.212Z,60.93
2018-03-21T02:16:18.724Z,61.06
2018-03-21T02:18:46.267Z,61.25
2018-03-21T02:21:13.774Z,61.22
2018-03-21T02:23:41.294Z,61.08
2018-03-21T02:26:08.834Z,61.36
2018-03-21T02:28:36.343Z,61.58
2018-03-21T02:31:04.128Z,61.55
2018-03-21T02:33:31.639Z,61.71
2018-03-21T02:35:59.155Z,61.65
2018-03-21T02:38:26.687Z,61.83
2018-03-21T02:40:54.198Z,62.06
2018-03-21T02:43:21.749Z,61.92
2018-03-21T02:45:49.264Z,61.93
2018-03-21T02:48:16.771Z,62.05
2018-03-21T02:50:44.310Z,61.95
2018-03-21T02:53:11.827Z,62.12
2018-03-21T02:55:39.597Z,61.71
2018-03-21T02:58:07.110Z,61.77
2018-03-21T03:00:34.622Z,62.02
2018-03-21T03:03:02.193Z,61.81
2018-03-21T03:05:29.718Z,61.98
2018-03-21T03:07:57.393Z,62.11
2018-03-21T03:10:24.915Z,62.12
2018-03-21T03:12:52.425Z,62.12
2018-03-21T03:15:19.961Z,62.34
2018-03-21T03:17:47.475Z,62.36
2018-03-21T03:20:15.047Z,62.37
2018-03-21T03:22:42.561Z,62.24
2018-03-21T03:25:10.102Z,62.20
2018-03-21T03:27:37.642Z,63.42
2018-03-21T03:30:05.156Z,63.04
2018-03-21T03:32:32.698Z,62.63
2018-03-21T03:35:00.209Z,62.65
2018-03-21T03:37:27.725Z,62.56
2018-03-21T03:39:55.292Z,62.77
2018-03-21T03:42:22.798Z,62.77
2018-03-21T03:44:50.438Z,63.09
2018-03-21T03:47:17.958Z,63.25
2018-03-21T03:49:45.478Z,63.17
2018-03-21T03:52:13.021Z,62.92
2018-03-21T03:54:40.541Z,63.01
2018-03-21T03:57:08.090Z,63.18
2018-03-21T03:59:35.602Z,63.07
2018-03-21T04:02:03.125Z,63.23
2018-03-21T04:04:30.675Z,63.39
2018-03-21T04:06:58.199Z,63.51
2018-03-21T04:09:25.870Z,63.75
2018-03-21T04:11:53.390Z,63.78
2018-03-21T04:14:22.130Z,63.87
2018-03-21T04:16:49.704Z,63.89
2018-03-21T04:19:17.220Z,63.97
2018-03-21T04:21:44.771Z,63.67
2018-03-21T04:24:12.333Z,63.79
2018-03-21T04:26:39.850Z,63.85
2018-03-21T04:29:07.392Z,63.86
2018-03-21T04:31:34.913Z,64.03
2018-03-21T04:34:02.582Z,64.02
2018-03-21T04:36:30.093Z,63.99
2018-03-21T04:38:57.619Z,64.04
2018-03-21T04:41:25.171Z,64.02
2018-03-21T04:43:53.534Z,64.09
2018-03-21T04:46:21.405Z,63.88
2018-03-21T04:48:48.918Z,63.38
2018-03-21T04:51:16.454Z,63.54
2018-03-21T04:53:43.999Z,63.43
2018-03-21T04:56:11.515Z,63.59
2018-03-21T04:58:39.071Z,63.36
2018-03-21T05:01:06.584Z,63.11
2018-03-21T05:03:34.108Z,63.54
2018-03-21T05:06:01.653Z,63.78
2018-03-21T05:08:30.179Z,63.65
2018-03-21T05:10:57.926Z,63.68
2018-03-21T05:13:25.445Z,63.50
2018-03-21T05:15:52.983Z,63.19
2018-03-21T05:18:20.521Z,62.97
2018-03-21T05:20:48.038Z,62.33
2018-03-21T05:23:15.842Z,62.04
2018-03-21T05:25:44.322Z,61.48
2018-03-21T05:28:11.939Z,60.73
2018-03-21T05:30:39.497Z,60.39
2018-03-21T05:33:07.014Z,59.88
2018-03-21T05:35:34.565Z,59.86
2018-03-21T05:38:02.081Z,59.95
2018-03-21T05:40:29.610Z,59.85
2018-03-21T05:42:57.154Z,59.69
2018-03-21T05:45:24.670Z,59.77
2018-03-21T05:47:52.536Z,59.90
2018-03-21T05:50:20.067Z,60.25
2018-03-21T05:52:48.506Z,60.05
2018-03-21T05:55:16.062Z,59.70
2018-03-21T05:57:43.583Z,59.15
2018-03-21T06:00:11.100Z,58.74
2018-03-21T06:02:38.650Z,58.75
2018-03-21T06:05:06.410Z,58.85
2018-03-21T06:07:34.865Z,58.67
2018-03-21T06:10:02.500Z,58.55
2018-03-21T06:12:29.947Z,58.57
2018-03-21T06:14:57.631Z,58.28
2018-03-21T06:17:25.141Z,58.21
2018-03-21T06:19:52.652Z,58.31
2018-03-21T06:22:20.186Z,58.01
2018-03-21T06:24:47.697Z,57.51
2018-03-21T06:27:15.429Z,56.50
2018-03-21T06:29:42.973Z,55.97
2018-03-21T06:32:10.497Z,54.95
2018-03-21T06:34:38.030Z,53.82
2018-03-21T06:37:05.543Z,52.18
2018-03-21T06:39:33.115Z,50.27
2018-03-21T06:42:00.638Z,48.78
2018-03-21T06:44:28.154Z,47.77
2018-03-21T06:46:55.694Z,46.77
2018-03-21T06:49:23.205Z,46.52
2018-03-21T06:51:50.749Z,46.09
2018-03-21T06:54:18.257Z,45.84
2018-03-21T06:56:45.813Z,44.97
2018-03-21T06:59:13.349Z,44.57
2018-03-21T07:01:40.862Z,43.84
2018-03-21T07:04:08.709Z,43.50
2018-03-21T07:06:36.216Z,42.81
2018-03-21T07:09:03.757Z,41.73
2018-03-21T07:11:31.284Z,41.69
2018-03-21T07:14:10.728Z,41.80
2018-03-21T07:16:45.029Z,41.60
2018-03-21T07:19:12.657Z,41.53
2018-03-21T07:21:40.207Z,40.57
2018-03-21T07:24:07.715Z,41.42
2018-03-21T07:26:35.226Z,40.37
2018-03-21T07:29:02.767Z,40.06
2018-03-21T07:31:30.283Z,39.12
2018-03-21T07:33:57.963Z,40.33
2018-03-21T07:36:25.477Z,39.84
2018-03-21T07:38:52.995Z,40.81
2018-03-21T07:41:21.482Z,42.65
2018-03-21T07:43:48.997Z,43.69
2018-03-21T07:46:16.787Z,42.17
2018-03-21T07:48:44.293Z,41.94
2018-03-21T07:51:11.914Z,41.70
2018-03-21T07:53:40.201Z,42.04
2018-03-21T07:56:07.787Z,41.61
2018-03-21T07:58:35.506Z,39.68
2018-03-21T08:01:03.961Z,39.29
2018-03-21T08:03:31.607Z,38.61
2018-03-21T08:06:00.145Z,37.29
2018-03-21T08:08:28.015Z,35.61
2018-03-21T08:10:56.376Z,34.24
2018-03-21T08:13:23.934Z,35.14
2018-03-21T08:15:51.567Z,34.72
2018-03-21T08:18:19.274Z,32.95
2018-03-21T08:20:46.861Z,33.98
2018-03-21T08:23:14.501Z,30.86
2018-03-21T08:25:42.069Z,30.69
2018-03-21T08:28:09.820Z,31.53
2018-03-21T08:30:37.493Z,30.25
2018-03-21T08:33:05.554Z,28.96
2018-03-21T08:35:33.310Z,29.30
2018-03-21T08:38:00.908Z,29.76
2018-03-21T08:40:28.455Z,27.95
2018-03-21T08:42:56.003Z,27.39
2018-03-21T08:45:23.522Z,28.15
2018-03-21T08:47:51.067Z,25.29
2018-03-21T08:50:18.610Z,26.18
2018-03-21T08:52:46.315Z,25.65
2018-03-21T08:55:13.860Z,23.81
2018-03-21T08:57:41.373Z,21.85
2018-03-21T09:00:08.917Z,21.08
2018-03-21T09:02:36.431Z,22.65
2018-03-21T09:05:03.989Z,20.68
2018-03-21T09:07:31.505Z,20.63
2018-03-21T09:09:59.048Z,19.78
2018-03-21T09:12:26.704Z,21.15
2018-03-21T09:14:54.213Z,20.42
2018-03-21T09:17:22.001Z,20.28
2018-03-21T09:19:49.529Z,20.20
2018-03-21T09:22:17.049Z,19.59
2018-03-21T09:24:44.601Z,18.56
2018-03-21T09:27:12.205Z,18.70
2018-03-21T09:29:40.014Z,20.46
2018-03-21T09:32:07.525Z,23.49
2018-03-21T09:34:35.038Z,24.48
2018-03-21T09:37:02.575Z,26.57
2018-03-21T09:39:30.094Z,28.80
2018-03-21T09:41:58.178Z,28.26
2018-03-21T09:44:25.710Z,23.87
2018-03-21T09:46:53.250Z,22.73
2018-03-21T09:49:20.802Z,22.06
2018-03-21T09:51:48.314Z,23.24
2018-03-21T09:54:16.047Z,21.45
2018-03-21T09:56:43.570Z,19.02
2018-03-21T09:59:11.076Z,19.46
2018-03-21T10:01:38.617Z,17.05
2018-03-21T10:04:06.133Z,15.35
2018-03-21T10:06:33.906Z,13.29
2018-03-21T10:09:01.446Z,12.54
2018-03-21T10:11:28.997Z,12.77
2018-03-21T10:13:56.538Z,13.03
2018-03-21T10:16:24.056Z,14.10
2018-03-21T10:18:51.844Z,11.45
2018-03-21T10:21:19.362Z,10.77
2018-03-21T10:23:46.910Z,12.50
2018-03-21T10:26:14.442Z,12.77
2018-03-21T10:28:41.979Z,11.49
2018-03-21T10:31:09.540Z,12.20
2018-03-21T10:33:37.048Z,12.50
2018-03-21T10:36:04.573Z,12.04
2018-03-21T10:38:32.115Z,12.29
2018-03-21T10:40:59.630Z,12.24
2018-03-21T10:43:27.185Z,11.54
2018-03-21T10:45:54.706Z,10.25
2018-03-21T10:48:22.643Z,9.76
2018-03-21T10:50:50.184Z,9.16
2018-03-21T10:53:17.766Z,10.38
2018-03-21T10:55:45.334Z,10.37
2018-03-21T10:58:12.847Z,11.21
2018-03-21T11:00:40.370Z,11.25
2018-03-21T11:03:07.921Z,11.27
2018-03-21T11:05:35.438Z,13.17
2018-03-21T11:08:03.182Z,16.20
2018-03-21T11:10:30.714Z,18.47
2018-03-21T11:12:58.235Z,19.59
2018-03-21T11:15:26.307Z,15.97
2018-03-21T11:17:53.886Z,14.11
2018-03-21T11:20:21.523Z,9.78
2018-03-21T11:22:49.130Z,10.06
2018-03-21T11:25:16.658Z,14.79
2018-03-21T11:27:44.221Z,16.43
2018-03-21T11:30:11.746Z,18.07
2018-03-21T11:32:39.505Z,17.29
2018-03-21T11:35:07.018Z,15.47
2018-03-21T11:37:34.544Z,12.70
2018-03-21T11:40:02.077Z,12.71
2018-03-21T11:42:29.586Z,11.28
2018-03-21T11:44:57.214Z,9.11
2018-03-21T11:47:24.735Z,10.36
2018-03-21T11:49:52.254Z,10.44
2018-03-21T11:52:20.707Z,13.88
2018-03-21T11:54:48.689Z,16.21
2018-03-21T11:57:16.646Z,14.29
2018-03-21T11:59:44.627Z,11.25
2018-03-21T12:02:12.155Z,10.64
2018-03-21T12:04:39.739Z,9.40
2018-03-21T12:07:07.249Z,9.13
2018-03-21T12:09:34.802Z,8.05
2018-03-21T12:12:02.315Z,8.14
2018-03-21T12:14:29.830Z,8.10
2018-03-21T12:16:57.366Z,7.41
2018-03-21T12:19:24.883Z,7.94
2018-03-21T12:21:52.762Z,10.33
2018-03-21T12:24:21.140Z,10.58
2018-03-21T12:26:49.645Z,12.19
2018-03-21T12:29:17.180Z,10.80
2018-03-21T12:31:44.746Z,13.85
2018-03-21T12:34:12.497Z,15.08
2018-03-21T12:36:40.022Z,12.95
2018-03-21T12:39:07.595Z,11.87
2018-03-21T12:41:35.219Z,11.76
2018-03-21T12:44:02.770Z,11.44
2018-03-21T12:46:30.401Z,10.56
2018-03-21T12:48:57.923Z,8.62
2018-03-21T12:51:25.488Z,9.07
2018-03-21T12:53:53.187Z,12.75
2018-03-21T12:56:20.744Z,14.01
2018-03-21T12:58:48.473Z,13.25
2018-03-21T13:01:16.001Z,12.28
2018-03-21T13:03:43.723Z,10.79
2018-03-21T13:06:11.292Z,10.47
2018-03-21T13:08:38.848Z,9.39
2018-03-21T13:11:07.840Z,8.66
2018-03-21T13:13:35.631Z,8.36
2018-03-21T13:16:03.345Z,7.93
2018-03-21T13:18:31.100Z,7.38
2018-03-21T13:20:58.627Z,7.39
2018-03-21T13:23:26.254Z,7.72
2018-03-21T13:25:54.013Z,8.43
2018-03-21T13:28:21.878Z,9.20
2018-03-21T13:30:49.749Z,8.27
2018-03-21T13:33:17.628Z,7.35
2018-03-21T13:35:45.787Z,7.78
2018-03-21T13:38:13.571Z,9.37
2018-03-21T13:40:41.315Z,9.67
2018-03-21T13:43:09.079Z,9.84
2018-03-21T13:45:37.281Z,8.67
2018-03-21T13:48:05.323Z,8.84
2018-03-21T13:50:33.190Z,8.79
2018-03-21T13:53:00.833Z,9.41
2018-03-21T13:55:28.493Z,10.15
2018-03-21T13:57:56.277Z,11.25
2018-03-21T14:00:24.087Z,10.48
2018-03-21T14:02:51.805Z,10.52
2018-03-21T14:05:19.728Z,9.64
2018-03-21T14:07:47.640Z,10.58
2018-03-21T14:10:15.507Z,10.70
2018-03-21T14:12:43.452Z,10.38
2018-03-21T14:15:11.064Z,9.33
2018-03-21T14:17:38.631Z,9.04
2018-03-21T14:20:06.357Z,8.68
2018-03-21T14:22:34.020Z,8.97
2018-03-21T14:25:02.218Z,9.32
2018-03-21T14:27:30.059Z,11.13
2018-03-21T14:29:57.660Z,10.94
2018-03-21T14:32:25.465Z,10.38
2018-03-21T14:34:53.021Z,10.51
2018-03-21T14:37:20.794Z,9.08
2018-03-21T14:39:48.452Z,9.84
2018-03-21T14:42:16.131Z,8.92
2018-03-21T14:44:43.684Z,10.16
2018-03-21T14:47:11.196Z,10.28
2018-03-21T14:49:39.326Z,9.85
2018-03-21T14:52:06.917Z,9.42
2018-03-21T14:54:34.490Z,9.58
2018-03-21T14:57:02.308Z,9.71
2018-03-21T14:59:29.900Z,10.76
2018-03-21T15:01:57.811Z,10.49
2018-03-21T15:04:25.702Z,11.01
2018-03-21T15:06:53.363Z,10.27
2018-03-21T15:09:21.232Z,11.65
2018-03-21T15:11:49.095Z,10.31
2018-03-21T15:14:17.076Z,11.59
2018-03-21T15:16:44.598Z,11.15
2018-03-21T15:19:12.998Z,11.80
2018-03-21T15:21:40.762Z,12.06
2018-03-21T15:24:08.418Z,11.46
2018-03-21T15:26:36.195Z,12.06
2018-03-21T15:29:03.958Z,11.74
2018-03-21T15:31:31.562Z,12.14
2018-03-21T15:33:59.266Z,13.43
2018-03-21T15:36:27.122Z,14.13
2018-03-21T15:38:55.013Z,16.70
2018-03-21T15:41:22.679Z,17.89
2018-03-21T15:43:50.528Z,18.75
2018-03-21T15:46:18.306Z,18.74
2018-03-21T15:48:46.172Z,20.23
2018-03-21T15:51:13.888Z,21.64
2018-03-21T15:53:41.684Z,21.34
2018-03-21T15:56:09.315Z,21.78
2018-03-21T15:58:37.133Z,21.86
2018-03-21T16:01:04.938Z,22.14
2018-03-21T16:03:32.960Z,21.02
2018-03-21T16:06:00.834Z,20.97
2018-03-21T16:08:28.544Z,20.61
2018-03-21T16:10:56.355Z,22.79
2018-03-21T16:13:24.370Z,22.35
2018-03-21T16:15:52.295Z,22.06
2018-03-21T16:18:20.158Z,21.63
2018-03-21T16:20:48.039Z,22.46
2018-03-21T16:23:16.090Z,22.62
2018-03-21T16:25:44.688Z,22.89
2018-03-21T16:28:13.145Z,22.06
2018-03-21T16:30:41.733Z,21.58
2018-03-21T16:33:09.930Z,22.06
2018-03-21T16:35:37.977Z,21.69
2018-03-21T16:38:07.303Z,22.61
2018-03-21T16:40:35.360Z,20.88
2018-03-21T16:43:03.329Z,21.79
2018-03-21T16:45:31.300Z,21.17
2018-03-21T16:47:59.849Z,20.71
2018-03-21T16:50:27.748Z,20.33
2018-03-21T16:52:55.886Z,21.84
2018-03-21T16:55:23.992Z,21.71
2018-03-21T16:57:51.860Z,20.95
2018-03-21T17:00:19.825Z,20.70
2018-03-21T17:02:47.608Z,21.84
2018-03-21T17:05:15.564Z,21.25
2018-03-21T17:07:43.176Z,23.15
2018-03-21T17:10:11.056Z,23.61
2018-03-21T17:12:38.854Z,23.34
2018-03-21T17:15:06.823Z,23.54
2018-03-21T17:17:35.510Z,24.72
2018-03-21T17:20:03.289Z,25.03
2018-03-21T17:22:31.299Z,26.13
2018-03-21T17:24:59.179Z,26.04
2018-03-21T17:27:27.082Z,26.25
2018-03-21T17:29:55.212Z,26.98
2018-03-21T17:32:24.141Z,27.13
2018-03-21T17:34:51.859Z,26.89
2018-03-21T17:37:19.771Z,27.64
2018-03-21T17:39:47.537Z,28.71
2018-03-21T17:42:16.036Z,28.28
2018-03-21T17:44:44.385Z,28.18
2018-03-21T17:47:12.673Z,29.25
2018-03-21T17:49:41.356Z,29.49
2018-03-21T17:52:10.247Z,29.43
2018-03-21T17:54:38.334Z,29.22
2018-03-21T17:57:06.286Z,29.91
2018-03-21T17:59:34.257Z,29.30
2018-03-21T18:02:02.318Z,29.46
2018-03-21T18:04:30.193Z,29.66
2018-03-21T18:06:58.060Z,29.48
2018-03-21T18:09:27.165Z,29.79
2018-03-21T18:11:55.127Z,30.43
2018-03-21T18:14:22.889Z,30.44
2018-03-21T18:16:50.755Z,30.23
2018-03-21T18:19:19.446Z,30.41
2018-03-21T18:21:47.193Z,30.54
2018-03-21T18:24:15.071Z,30.59
2018-03-21T18:26:42.994Z,30.72
2018-03-21T18:29:11.196Z,31.26
2018-03-21T18:31:38.869Z,31.33
2018-03-21T18:34:06.401Z,31.71
2018-03-21T18:36:33.913Z,34.77
2018-03-21T18:39:01.762Z,34.60
2018-03-21T18:41:29.528Z,33.61
2018-03-21T18:43:57.493Z,32.50
2018-03-21T18:46:25.245Z,32.21
2018-03-21T18:48:53.273Z,32.39
2018-03-21T18:51:21.194Z,32.34
2018-03-21T18:53:49.162Z,33.56
2018-03-21T18:56:17.235Z,34.01
2018-03-21T18:58:45.102Z,34.69
2018-03-21T19:01:12.966Z,35.35
2018-03-21T19:03:41.039Z,35.79
2018-03-21T19:06:09.386Z,35.25
2018-03-21T19:08:37.591Z,35.95
2018-03-21T19:11:05.377Z,35.60
2018-03-21T19:13:33.323Z,35.44
2018-03-21T19:16:01.227Z,35.91
2018-03-21T19:18:29.056Z,35.98
2018-03-21T19:20:57.437Z,35.69
2018-03-21T19:23:25.251Z,35.55
2018-03-21T19:25:53.695Z,36.29
2018-03-21T19:28:21.648Z,35.55
2018-03-21T19:30:49.515Z,35.05
2018-03-21T19:33:17.569Z,35.01
2018-03-21T19:35:45.455Z,35.07
2018-03-21T19:38:13.524Z,35.38
2018-03-21T19:40:41.409Z,35.44
2018-03-21T19:43:09.263Z,35.95
2018-03-21T19:45:37.648Z,36.22
2018-03-21T19:48:05.670Z,35.67
2018-03-21T19:50:33.529Z,35.18
2018-03-21T19:53:01.925Z,34.67
2018-03-21T19:55:29.868Z,35.16
2018-03-21T19:57:57.912Z,35.34
2018-03-21T20:00:25.758Z,35.24
2018-03-21T20:02:53.625Z,35.35
2018-03-21T20:05:22.206Z,35.35
2018-03-21T20:07:50.073Z,35.43
2018-03-21T20:10:18.043Z,35.98
2018-03-21T20:12:45.858Z,35.97
2018-03-21T20:15:13.686Z,34.61
2018-03-21T20:17:41.630Z,34.69
2018-03-21T20:20:09.507Z,34.62
2018-03-21T20:22:37.991Z,35.02
2018-03-21T20:25:05.855Z,35.08
2018-03-21T20:27:34.133Z,36.07
2018-03-21T20:30:02.099Z,35.60
2018-03-21T20:32:29.969Z,35.81
2018-03-21T20:34:57.850Z,36.34
2018-03-21T20:37:26.725Z,37.05
2018-03-21T20:39:55.346Z,37.61
2018-03-21T20:42:24.096Z,38.05
2018-03-21T20:44:51.961Z,38.96
2018-03-21T20:47:20.091Z,38.64
2018-03-21T20:49:47.955Z,38.59
2018-03-21T20:52:16.072Z,38.89
2018-03-21T20:54:44.114Z,40.60
2018-03-21T20:57:11.980Z,39.96
2018-03-21T20:59:39.984Z,39.27
2018-03-21T21:02:07.846Z,39.20
2018-03-21T21:04:35.733Z,39.29
2018-03-21T21:07:03.783Z,39.50
2018-03-21T21:09:32.675Z,40.43
2018-03-21T21:12:00.803Z,40.15
2018-03-21T21:14:28.717Z,40.37
2018-03-21T21:16:56.581Z,40.46
2018-03-21T21:19:24.556Z,40.71
2018-03-21T21:21:52.526Z,41.21
2018-03-21T21:24:20.375Z,40.82
2018-03-21T21:26:48.972Z,41.17
2018-03-21T21:29:16.838Z,41.32
2018-03-21T21:31:44.893Z,41.25
2018-03-21T21:34:12.670Z,41.96
2018-03-21T21:36:41.253Z,41.76
2018-03-21T21:39:09.239Z,42.01
2018-03-21T21:41:37.397Z,42.06
2018-03-21T21:44:05.321Z,41.87
2018-03-21T21:46:33.150Z,42.37
2018-03-21T21:49:01.200Z,42.67
2018-03-21T21:51:29.068Z,43.16
2018-03-21T21:53:56.923Z,44.66
2018-03-21T21:56:24.903Z,44.47
2018-03-21T21:58:52.877Z,45.35
2018-03-21T22:01:20.708Z,45.94
2018-03-21T22:03:48.576Z,45.99
2018-03-21T22:06:16.468Z,46.00
2018-03-21T22:08:44.233Z,45.83
2018-03-21T22:11:12.406Z,46.52
2018-03-21T22:13:40.305Z,46.30
2018-03-21T22:16:08.144Z,45.93
2018-03-21T22:18:35.781Z,45.74
2018-03-21T22:21:03.362Z,45.95
2018-03-21T22:23:31.026Z,45.42
2018-03-21T22:25:58.788Z,46.70
2018-03-21T22:28:26.433Z,46.98
2018-03-21T22:30:53.962Z,47.00
2018-03-21T22:33:21.668Z,46.68
2018-03-21T22:35:49.390Z,46.09
2018-03-21T22:38:17.257Z,45.40
2018-03-21T22:40:45.169Z,44.63
2018-03-21T22:43:12.933Z,44.73
2018-03-21T22:45:40.800Z,45.77
2018-03-21T22:48:08.327Z,44.93
2018-03-21T22:50:35.904Z,44.90
2018-03-21T22:53:03.569Z,44.92
2018-03-21T22:55:31.445Z,45.42
2018-03-21T22:57:59.314Z,46.06
2018-03-21T23:00:26.887Z,46.81
2018-03-21T23:02:54.490Z,46.11
2018-03-21T23:05:22.014Z,46.28
2018-03-21T23:07:49.550Z,45.97
2018-03-21T23:10:17.134Z,46.54
2018-03-21T23:12:44.681Z,46.65
2018-03-21T23:15:12.238Z,46.12
2018-03-21T23:17:39.754Z,46.34
2018-03-21T23:20:07.282Z,45.80
2018-03-21T23:22:34.840Z,45.23
2018-03-21T23:25:02.394Z,45.82
2018-03-21T23:27:30.098Z,45.76
2018-03-21T23:29:57.690Z,46.03
2018-03-21T23:32:25.202Z,45.77
2018-03-21T23:34:52.743Z,45.18
2018-03-21T23:37:20.301Z,45.84
2018-03-21T23:39:47.889Z,45.92
2018-03-21T23:42:15.419Z,47.19
2018-03-21T23:44:42.948Z,47.11
2018-03-21T23:47:10.499Z,47.05
2018-03-21T23:49:38.019Z,47.40
2018-03-21T23:52:05.592Z,47.76
2018-03-21T23:54:33.180Z,47.74
2018-03-21T23:57:01.504Z,48.05
2018-03-21T23:59:29.053Z,48.61
